createdAt,value
2023-03-10T00:01:20.710Z,98975.83
2023-03-10T00:03:49.466Z,98974.36
2023-03-10T00:06:20.199Z,98977.89
2023-03-10T00:08:49.181Z,98976.25
2023-03-10T00:11:17.013Z,98970.91
2023-03-10T00:13:44.915Z,98961.25
2023-03-10T00:16:19.493Z,98959.75
2023-03-10T00:18:48.269Z,98956.72
2023-03-10T00:21:18.954Z,98948.85
2023-03-10T00:23:47.436Z,98946.66
2023-03-10T00:26:17.559Z,98947.96
2023-03-10T00:28:45.486Z,98951.64
2023-03-10T00:31:34.843Z,98949.29
2023-03-10T00:34:02.794Z,98948.23
2023-03-10T00:36:32.105Z,98942.36
2023-03-10T00:39:01.504Z,98938.34
2023-03-10T00:41:31.848Z,98930.33
2023-03-10T00:44:01.153Z,98924.48
2023-03-10T00:46:30.329Z,98922.15
2023-03-10T00:48:58.263Z,98918.80
2023-03-10T00:51:26.226Z,98915.96
2023-03-10T00:53:54.195Z,98913.13
2023-03-10T00:56:24.921Z,98912.98
2023-03-10T00:58:55.172Z,98908.48
2023-03-10T07:00:33.576Z,98343.73
2023-03-10T07:03:01.440Z,98341.73
2023-03-10T07:05:29.376Z,98338.04
2023-03-10T07:07:57.271Z,98329.82
2023-03-10T07:10:25.443Z,98313.52
2023-03-10T07:12:56.893Z,98319.91
2023-03-10T07:15:26.519Z,98329.81
2023-03-10T07:17:56.449Z,98323.60
2023-03-10T07:20:25.296Z,98337.20
2023-03-10T07:22:53.655Z,98332.84
2023-03-10T07:25:21.541Z,98329.66
2023-03-10T07:27:49.515Z,98329.33
2023-03-10T07:30:18.219Z,98319.40
2023-03-10T07:32:46.225Z,98315.54
2023-03-10T07:35:14.149Z,98309.83
2023-03-10T07:37:42.201Z,98309.98
2023-03-10T07:40:11.658Z,98311.31
2023-03-10T07:42:39.635Z,98305.91
2023-03-10T07:45:07.846Z,98303.89
2023-03-10T07:47:35.739Z,98303.87
2023-03-10T07:50:03.677Z,98298.15
2023-03-10T07:52:31.546Z,98291.40
2023-03-10T07:54:59.318Z,98278.59
2023-03-10T07:57:28.536Z,98275.23
2023-03-10T07:59:56.404Z,98272.67
2023-03-10T08:02:24.189Z,98278.86
2023-03-10T08:04:52.756Z,98284.59
2023-03-10T08:07:20.580Z,98281.21
2023-03-10T08:09:52.653Z,98285.77
2023-03-10T08:12:22.038Z,98279.55
2023-03-10T08:14:51.285Z,98276.54
2023-03-10T08:17:19.934Z,98271.67
2023-03-10T08:19:48.011Z,98261.77
2023-03-10T08:22:16.919Z,98253.20
2023-03-10T08:24:44.760Z,98256.58
2023-03-10T08:27:12.572Z,98247.84
2023-03-10T08:29:40.339Z,98247.67
2023-03-10T08:32:08.655Z,98254.88
2023-03-10T08:34:37.782Z,98258.55
2023-03-10T08:37:05.927Z,98269.79
2023-03-10T08:39:33.806Z,98262.02
2023-03-10T08:42:01.660Z,98251.70
2023-03-10T08:44:29.520Z,98242.52
2023-03-10T08:46:57.490Z,98238.55
2023-03-10T08:49:25.460Z,98233.25
2023-03-10T08:51:53.425Z,98237.90
2023-03-10T08:54:22.492Z,98237.02
2023-03-10T08:56:50.704Z,98227.05
2023-03-10T08:59:19.487Z,98221.47
2023-03-10T09:01:47.750Z,98217.91
2023-03-10T09:04:15.795Z,98211.65
2023-03-10T09:06:44.002Z,98212.14
2023-03-10T09:09:12.788Z,98210.57
2023-03-10T09:11:41.442Z,98211.36
2023-03-10T09:14:10.741Z,98203.48
2023-03-10T09:16:39.935Z,98200.69
2023-03-10T09:19:07.835Z,98192.66
2023-03-10T09:21:35.718Z,98194.09
2023-03-10T09:24:04.697Z,98189.35
2023-03-10T09:26:32.516Z,98185.27
2023-03-10T09:29:00.885Z,98185.54
2023-03-10T09:31:32.840Z,98196.48
2023-03-10T09:34:00.988Z,98193.13
2023-03-10T09:36:29.957Z,98189.43
2023-03-10T09:38:59.184Z,98192.16
2023-03-10T09:41:42.019Z,98187.60
2023-03-10T09:44:30.934Z,98198.58
2023-03-10T09:47:11.081Z,98194.02
2023-03-10T09:49:45.505Z,98196.84
2023-03-10T09:52:38.775Z,98191.57
2023-03-10T09:55:27.827Z,98185.23
2023-03-10T09:57:56.991Z,98176.67
2023-03-10T10:00:34.515Z,98166.60
2023-03-10T10:03:24.620Z,98158.54
2023-03-10T10:05:54.106Z,98145.55
2023-03-10T10:08:33.231Z,98146.21
2023-03-10T10:11:03.590Z,98143.96
2023-03-10T10:13:31.521Z,98142.55
2023-03-10T10:16:33.507Z,98138.39
2023-03-10T10:19:18.043Z,98131.65
2023-03-10T10:21:53.488Z,98128.98
2023-03-10T10:24:21.643Z,98128.61
2023-03-10T10:26:49.525Z,98119.81
2023-03-10T10:29:26.942Z,98118.91
2023-03-10T10:32:05.940Z,98122.03
2023-03-10T10:34:35.652Z,98123.68
2023-03-10T10:37:20.309Z,98125.55
2023-03-10T10:39:51.179Z,98123.21
2023-03-10T10:42:24.383Z,98123.75
2023-03-10T10:44:58.051Z,98116.02
2023-03-10T10:47:27.576Z,98112.23
2023-03-10T10:50:08.626Z,98108.56
2023-03-10T10:52:36.599Z,98101.98
2023-03-10T10:55:05.547Z,98099.60
2023-03-10T10:57:36.307Z,98099.91
2023-03-10T11:00:32.370Z,98098.59
2023-03-10T11:03:00.721Z,98098.00
2023-03-10T11:05:37.297Z,98101.50
2023-03-10T11:08:52.575Z,98097.55
2023-03-10T11:11:24.642Z,98086.85
2023-03-10T11:14:14.834Z,98084.48
2023-03-10T11:16:53.390Z,98083.25
2023-03-10T11:19:52.514Z,98078.48
2023-03-10T11:22:45.087Z,98064.95
2023-03-10T11:25:12.849Z,98070.19
2023-03-10T11:27:59.416Z,98071.70
2023-03-10T11:30:38.753Z,98067.06
2023-03-10T11:33:06.498Z,98061.20
2023-03-10T11:35:45.742Z,98058.73
2023-03-10T11:38:34.994Z,98055.69
2023-03-10T11:41:28.721Z,98051.90
2023-03-10T11:44:05.598Z,98045.55
2023-03-10T11:46:45.213Z,98043.55
2023-03-10T11:49:16.378Z,98042.29
2023-03-10T11:52:07.693Z,98041.56
2023-03-10T11:54:41.152Z,98043.86
2023-03-10T11:57:20.639Z,98041.92
2023-03-10T12:00:02.512Z,98034.77
2023-03-10T12:02:36.950Z,98043.27
2023-03-10T12:05:24.442Z,98044.16
2023-03-10T12:07:55.821Z,98042.11
2023-03-10T12:10:24.302Z,98039.25
2023-03-10T12:12:54.730Z,98037.70
2023-03-10T12:15:26.491Z,98036.48
2023-03-10T12:17:55.064Z,98039.02
2023-03-10T12:20:22.930Z,98039.18
2023-03-10T12:22:54.585Z,98044.49
2023-03-10T12:25:28.208Z,98043.61
2023-03-10T12:28:22.506Z,98044.73
2023-03-10T12:31:04.117Z,98037.73
2023-03-10T12:33:35.030Z,98031.02
2023-03-10T12:36:10.145Z,98034.89
2023-03-10T12:38:50.399Z,98036.95
2023-03-10T12:41:27.368Z,98035.41
2023-03-10T12:44:01.178Z,98028.94
2023-03-10T12:46:49.633Z,98020.75
2023-03-10T12:49:29.669Z,98018.02
2023-03-10T12:52:20.057Z,98019.41
2023-03-10T12:55:04.642Z,98018.30
2023-03-10T12:57:45.386Z,98020.24
2023-03-10T13:00:24.105Z,98019.23
2023-03-10T13:03:04.360Z,98020.80
2023-03-10T13:05:39.496Z,98024.04
2023-03-10T13:08:35.459Z,98019.14
2023-03-10T13:11:04.829Z,98025.55
2023-03-10T13:13:37.854Z,98030.41
2023-03-10T13:16:08.422Z,98032.13
2023-03-10T13:18:36.316Z,98036.08
2023-03-10T13:21:04.445Z,98040.52
2023-03-10T13:23:38.394Z,98044.09
2023-03-10T13:26:14.654Z,98047.52
2023-03-10T13:29:01.337Z,98046.43
2023-03-10T13:31:30.369Z,98042.10
2023-03-10T13:34:12.966Z,98047.01
2023-03-10T13:36:41.352Z,98046.20
2023-03-10T13:39:27.384Z,98045.91
2023-03-10T13:41:58.867Z,98050.28
2023-03-10T13:44:40.055Z,98050.39
2023-03-10T13:47:43.150Z,98048.77
2023-03-10T13:50:16.285Z,98048.73
2023-03-10T13:52:57.948Z,98051.04
2023-03-10T13:55:28.478Z,98047.50
2023-03-10T13:57:58.264Z,98047.31
2023-03-10T14:00:26.991Z,98044.16
2023-03-10T14:02:55.890Z,98044.20
2023-03-10T14:05:39.271Z,98046.00
2023-03-10T14:08:17.273Z,98049.32
2023-03-10T14:10:45.142Z,98044.30
2023-03-10T14:13:39.629Z,98050.80
2023-03-10T14:16:08.315Z,98049.37
2023-03-10T14:18:38.629Z,98052.28
2023-03-10T14:21:25.032Z,98050.99
2023-03-10T14:23:53.820Z,98046.17
2023-03-10T14:26:21.588Z,98042.16
2023-03-10T14:28:49.555Z,98039.88
2023-03-10T14:31:23.528Z,98040.48
2023-03-10T14:33:51.695Z,98036.67
2023-03-10T14:36:19.645Z,98034.38
2023-03-10T14:38:47.671Z,98038.83
2023-03-10T14:41:19.020Z,98037.90
2023-03-10T14:43:47.190Z,98037.36
2023-03-10T14:46:15.729Z,98037.02
2023-03-10T14:48:46.106Z,98036.27
2023-03-10T14:51:29.033Z,98036.52
2023-03-10T14:54:02.407Z,98032.36
2023-03-10T14:56:31.918Z,98029.58
2023-03-10T14:59:02.546Z,98034.38
2023-03-10T15:01:30.840Z,98034.45
2023-03-10T15:03:58.786Z,98034.59
2023-03-10T15:06:26.525Z,98028.81
2023-03-10T15:08:54.426Z,98028.26
2023-03-10T15:11:36.048Z,98026.70
2023-03-10T15:14:18.613Z,98029.60
2023-03-10T15:16:46.396Z,98030.39
2023-03-10T15:19:21.881Z,98020.92
2023-03-10T15:21:50.214Z,98019.63
2023-03-10T15:24:18.614Z,98021.64
2023-03-10T15:26:48.374Z,98025.82
2023-03-10T15:29:19.807Z,98025.00
2023-03-10T15:31:47.758Z,98023.60
2023-03-10T15:34:15.690Z,98027.15
2023-03-10T15:36:43.650Z,98031.91
2023-03-10T15:39:18.762Z,98036.29
2023-03-10T15:41:53.394Z,98035.06
2023-03-10T15:44:21.157Z,98035.85
2023-03-10T15:46:53.068Z,98033.56
2023-03-10T15:49:21.186Z,98034.70
2023-03-10T15:51:49.054Z,98038.77
2023-03-10T15:54:17.172Z,98041.05
2023-03-10T15:56:45.242Z,98038.15
2023-03-10T15:59:13.415Z,98032.12
2023-03-10T16:01:41.460Z,98030.66
2023-03-10T16:04:09.331Z,98032.55
2023-03-10T16:06:37.103Z,98032.58
2023-03-10T16:09:05.610Z,98028.30
2023-03-10T16:11:34.773Z,98031.38
2023-03-10T16:14:02.656Z,98034.59
2023-03-10T16:16:30.441Z,98035.27
2023-03-10T16:18:58.246Z,98039.67
2023-03-10T16:21:26.200Z,98044.06
2023-03-10T16:23:54.288Z,98043.30
2023-03-10T16:26:23.570Z,98040.55
2023-03-10T16:28:54.507Z,98039.38
2023-03-10T16:31:24.935Z,98035.85
2023-03-10T16:33:53.730Z,98040.33
2023-03-10T16:36:27.905Z,98039.44
2023-03-10T16:38:55.708Z,98039.95
2023-03-10T16:41:24.313Z,98039.70
2023-03-10T16:43:54.420Z,98039.98
2023-03-10T16:46:30.227Z,98035.36
2023-03-10T16:49:00.364Z,98033.63
2023-03-10T16:51:39.987Z,98029.92
2023-03-10T16:54:11.635Z,98035.05
2023-03-10T16:56:45.425Z,98030.94
2023-03-10T16:59:18.155Z,98032.45
2023-03-10T17:01:47.117Z,98032.55
2023-03-10T17:04:15.125Z,98033.98
2023-03-10T17:06:43.400Z,98033.02
2023-03-10T17:09:12.941Z,98028.56
2023-03-10T17:11:44.632Z,98032.91
2023-03-10T17:14:15.466Z,98026.64
2023-03-10T17:16:45.121Z,98029.17
2023-03-10T17:19:18.688Z,98029.31
2023-03-10T17:21:49.235Z,98031.13
2023-03-10T17:24:19.412Z,98029.95
2023-03-10T17:26:47.796Z,98029.33
2023-03-10T17:29:16.306Z,98031.09
2023-03-10T17:31:49.506Z,98032.73
2023-03-10T17:34:19.152Z,98034.55
2023-03-10T17:36:49.802Z,98035.77
2023-03-10T17:39:20.970Z,98031.23
2023-03-10T17:41:48.843Z,98027.88
2023-03-10T17:44:17.210Z,98021.22
2023-03-10T17:46:45.533Z,98023.77
2023-03-10T17:49:14.956Z,98025.61
2023-03-10T17:51:49.152Z,98024.55
2023-03-10T17:54:27.245Z,98023.41
2023-03-10T17:57:01.117Z,98017.29
2023-03-10T17:59:29.462Z,98018.09
2023-03-10T18:01:57.308Z,98012.56
2023-03-10T18:04:29.686Z,98019.06
2023-03-10T18:06:57.519Z,98024.39
2023-03-10T18:09:25.280Z,98022.25
2023-03-10T18:11:56.306Z,98022.27
2023-03-10T18:14:25.161Z,98014.81
2023-03-10T18:16:52.957Z,98013.41
2023-03-10T18:19:21.479Z,98014.20
2023-03-10T18:21:51.131Z,98008.67
2023-03-10T18:24:19.036Z,98008.91
2023-03-10T18:26:47.051Z,98005.35
2023-03-10T18:29:14.883Z,98005.39
2023-03-10T18:31:42.822Z,98002.11
2023-03-10T18:34:11.140Z,98003.73
2023-03-10T18:36:40.153Z,97994.08
2023-03-10T18:39:08.121Z,97990.42
2023-03-10T18:41:36.500Z,97981.98
2023-03-10T18:44:05.676Z,97972.67
2023-03-10T18:46:33.562Z,97959.03
2023-03-10T18:49:01.585Z,97953.31
2023-03-10T18:51:29.461Z,97949.14
2023-03-10T18:53:57.518Z,97944.84
2023-03-10T18:56:29.000Z,97943.27
2023-03-10T18:58:57.686Z,97945.29
2023-03-10T19:01:26.931Z,97944.21
2023-03-10T19:03:55.019Z,97944.72
2023-03-10T19:06:22.991Z,97939.15
2023-03-10T19:08:53.372Z,97938.02
2023-03-10T19:11:24.404Z,97938.56
2023-03-10T19:13:52.381Z,97937.92
2023-03-10T19:16:21.535Z,97937.77
2023-03-10T19:18:49.449Z,97939.32
2023-03-10T19:21:17.294Z,97940.24
2023-03-10T19:23:45.878Z,97942.34
2023-03-10T19:26:13.712Z,97934.09
2023-03-10T19:28:41.460Z,97931.06
2023-03-10T19:31:11.872Z,97929.91
2023-03-10T19:33:40.034Z,97932.65
2023-03-10T19:36:11.924Z,97931.50
2023-03-10T19:38:41.682Z,97930.45
2023-03-10T19:41:15.505Z,97926.09
2023-03-10T19:43:45.425Z,97925.46
2023-03-10T19:46:14.598Z,97922.27
2023-03-10T19:48:44.216Z,97922.25
2023-03-10T19:51:21.679Z,97923.93
2023-03-10T19:53:51.390Z,97928.87
2023-03-10T19:56:19.935Z,97924.13
2023-03-10T19:58:49.419Z,97921.68
2023-03-10T20:01:23.345Z,97918.75
2023-03-10T20:03:52.793Z,97915.98
2023-03-10T20:06:21.445Z,97917.31
2023-03-10T20:08:49.868Z,97922.17
2023-03-10T20:11:19.782Z,97915.39
2023-03-10T20:13:47.701Z,97917.23
2023-03-10T20:16:16.230Z,97908.59
2023-03-10T20:18:44.009Z,97897.55
2023-03-10T20:21:12.221Z,97892.77
2023-03-10T20:23:40.190Z,97886.33
2023-03-10T20:26:10.423Z,97885.81
2023-03-10T20:28:39.830Z,97884.31
2023-03-10T20:31:08.309Z,97882.32
2023-03-10T20:33:36.677Z,97881.16
2023-03-10T20:36:04.824Z,97884.72
2023-03-10T20:38:32.561Z,97882.04
2023-03-10T20:41:00.264Z,97877.63
2023-03-10T20:43:28.244Z,97871.17
2023-03-10T20:45:56.150Z,97862.22
2023-03-10T20:48:23.922Z,97857.13
2023-03-10T20:50:56.121Z,97850.56
2023-03-10T20:53:24.459Z,97848.21
2023-03-10T20:55:52.252Z,97850.27
2023-03-10T20:58:20.565Z,97847.78
2023-03-10T21:00:49.104Z,97842.77
2023-03-10T21:03:17.054Z,97841.25
2023-03-10T21:05:44.855Z,97838.54
2023-03-10T21:08:13.392Z,97833.48
2023-03-10T21:10:41.832Z,97830.15
2023-03-10T21:13:09.545Z,97825.94
2023-03-10T21:15:37.687Z,97820.37
2023-03-10T21:18:06.263Z,97815.02
2023-03-10T21:20:34.189Z,97813.04
2023-03-10T21:23:04.277Z,97813.40
2023-03-10T21:25:32.093Z,97807.16
2023-03-10T21:28:00.042Z,97803.62
2023-03-10T21:30:31.862Z,97800.25
2023-03-10T21:33:00.043Z,97790.78
2023-03-10T21:35:30.558Z,97787.09
2023-03-10T21:37:59.543Z,97787.90
2023-03-10T21:40:27.662Z,97785.72
2023-03-10T21:42:55.429Z,97783.68
2023-03-10T21:45:25.271Z,97783.19
2023-03-10T21:47:54.222Z,97779.46
2023-03-10T21:50:30.318Z,97777.58
2023-03-10T21:52:58.688Z,97768.74
2023-03-10T21:55:26.853Z,97759.52
2023-03-10T21:57:55.138Z,97758.46
2023-03-10T22:00:24.352Z,97753.69
2023-03-10T22:02:53.355Z,97749.77
2023-03-10T22:05:21.624Z,97745.02
2023-03-10T22:07:50.345Z,97739.41
2023-03-10T22:10:18.507Z,97734.17
2023-03-10T22:12:46.346Z,97728.71
2023-03-10T22:15:20.844Z,97728.33
2023-03-10T22:17:49.654Z,97732.84
2023-03-10T22:20:26.092Z,97728.56
2023-03-10T22:22:54.372Z,97731.29
2023-03-10T22:25:22.380Z,97726.25
2023-03-10T22:27:55.608Z,97714.63
2023-03-10T22:30:25.901Z,97715.70
2023-03-10T22:32:54.848Z,97715.49
2023-03-10T22:35:22.906Z,97708.98
2023-03-10T22:37:51.694Z,97710.65
2023-03-10T22:40:22.878Z,97708.75
2023-03-10T22:42:51.127Z,97707.34
2023-03-10T22:45:23.190Z,97710.36
2023-03-10T22:47:54.315Z,97712.87
2023-03-10T22:50:25.970Z,97708.92
2023-03-10T22:52:54.146Z,97711.02
2023-03-10T22:55:24.901Z,97705.31
2023-03-10T22:57:53.574Z,97708.20
2023-03-10T23:00:22.053Z,97703.37
2023-03-10T23:02:50.637Z,97710.55
2023-03-10T23:05:18.612Z,97713.10
2023-03-10T23:07:47.488Z,97714.15
2023-03-10T23:10:21.562Z,97713.54
2023-03-10T23:12:50.186Z,97714.61
2023-03-10T23:15:27.505Z,97710.50
2023-03-10T23:17:56.363Z,97708.91
2023-03-10T23:20:27.795Z,97706.65
2023-03-10T23:22:57.927Z,97705.96
2023-03-10T23:25:32.756Z,97701.04
2023-03-10T23:28:01.483Z,97696.73
2023-03-10T23:30:30.001Z,97700.93
2023-03-10T23:32:58.207Z,97701.45
2023-03-10T23:35:29.994Z,97703.85
2023-03-10T23:38:00.378Z,97701.64
2023-03-10T23:40:30.607Z,97703.31
2023-03-10T23:43:00.509Z,97700.80
2023-03-10T23:45:29.865Z,97699.63
2023-03-10T23:48:00.041Z,97699.70
2023-03-10T23:50:37.628Z,97696.44
2023-03-10T23:53:06.444Z,97692.52
2023-03-10T23:55:37.350Z,97693.52
2023-03-10T23:58:06.756Z,97689.27
